createdAt,value
2023-05-19T00:00:31.175Z,8.40
2023-05-19T00:03:38.501Z,8.30
2023-05-19T00:06:19.484Z,7.40
2023-05-19T00:09:25.269Z,8.20
2023-05-19T00:12:06.561Z,8.60
2023-05-19T00:15:20.300Z,6.80
2023-05-19T00:18:02.346Z,7.60
2023-05-19T00:21:12.355Z,8.20
2023-05-19T00:24:19.132Z,6.90
2023-05-19T00:27:38.427Z,7.70
2023-05-19T00:30:33.941Z,7.80
2023-05-19T00:33:39.996Z,6.70
2023-05-19T00:36:41.344Z,7.70
2023-05-19T00:39:47.915Z,8.80
2023-05-19T00:43:19.383Z,7.10
2023-05-19T00:46:15.450Z,8.70
2023-05-19T00:49:03.436Z,7.40
2023-05-19T00:51:59.612Z,9.20
2023-05-19T00:55:10.127Z,7.90
2023-05-19T00:58:15.685Z,8.10
2023-05-19T01:01:27.080Z,6.10
2023-05-19T01:04:29.962Z,8.00
2023-05-19T01:07:32.546Z,8.10
2023-05-19T01:10:34.544Z,10.00
2023-05-19T01:13:45.107Z,8.60
2023-05-19T01:17:18.983Z,8.20
2023-05-19T01:21:05.096Z,9.40
2023-05-19T01:24:30.304Z,7.80
2023-05-19T01:27:51.833Z,9.70
2023-05-19T01:31:13.753Z,8.00
2023-05-19T01:34:36.404Z,6.50
2023-05-19T01:37:24.856Z,8.20
2023-05-19T01:40:25.297Z,7.00
2023-05-19T01:43:01.855Z,7.80
2023-05-19T01:45:49.739Z,7.10
2023-05-19T01:48:41.766Z,8.10
2023-05-19T01:51:41.962Z,7.90
2023-05-19T01:54:48.909Z,11.60
2023-05-19T01:57:51.944Z,7.60
2023-05-19T02:02:02.002Z,9.40
2023-05-19T02:05:10.739Z,8.40
2023-05-19T02:08:34.322Z,8.50
2023-05-19T02:11:57.370Z,9.20
2023-05-19T02:15:32.947Z,8.00
2023-05-19T02:18:22.339Z,7.80
2023-05-19T02:22:03.672Z,10.40
2023-05-19T02:24:56.932Z,9.10
2023-05-19T02:28:15.179Z,7.10
2023-05-19T02:31:28.445Z,6.50
2023-05-19T02:34:29.785Z,8.60
2023-05-19T02:37:15.760Z,8.20
2023-05-19T02:40:18.460Z,8.20
2023-05-19T02:42:47.522Z,8.10
2023-05-19T02:45:29.012Z,9.30
2023-05-19T02:48:11.041Z,9.10
2023-05-19T02:51:18.097Z,6.40
2023-05-19T02:54:17.808Z,7.60
2023-05-19T02:57:27.898Z,8.90
2023-05-19T03:00:57.782Z,9.10
2023-05-19T03:04:02.322Z,10.70
2023-05-19T03:06:49.541Z,8.70
2023-05-19T03:09:49.014Z,8.70
2023-05-19T03:13:00.183Z,9.00
2023-05-19T03:16:02.428Z,10.60
2023-05-19T03:19:01.776Z,7.70
2023-05-19T03:22:06.724Z,8.40
2023-05-19T03:25:33.576Z,8.50
2023-05-19T03:28:40.806Z,8.60
2023-05-19T03:32:07.921Z,8.70
2023-05-19T03:35:13.567Z,8.10
2023-05-19T03:38:12.858Z,8.50
2023-05-19T03:41:01.927Z,8.20
2023-05-19T03:43:42.702Z,11.60
2023-05-19T03:46:41.177Z,10.30
2023-05-19T03:49:50.506Z,8.60
2023-05-19T03:53:05.899Z,7.80
2023-05-19T03:55:52.507Z,8.10
2023-05-19T03:58:50.268Z,9.20
2023-05-19T04:01:49.065Z,8.40
2023-05-19T04:04:48.312Z,7.80
2023-05-19T04:07:51.478Z,9.80
2023-05-19T04:10:35.632Z,8.30
2023-05-19T04:13:12.799Z,9.60
2023-05-19T04:16:23.447Z,9.10
2023-05-19T04:19:07.544Z,9.00
2023-05-19T04:22:07.869Z,12.70
2023-05-19T04:24:37.342Z,9.20
2023-05-19T04:27:16.797Z,8.80
2023-05-19T04:30:22.806Z,7.90
2023-05-19T04:33:21.442Z,8.70
2023-05-19T04:36:19.905Z,8.30
2023-05-19T04:38:49.219Z,7.90
2023-05-19T04:41:30.214Z,9.90
2023-05-19T04:44:10.040Z,8.80
2023-05-19T04:46:43.090Z,11.20
2023-05-19T04:49:19.717Z,7.70
2023-05-19T04:52:23.014Z,9.30
2023-05-19T04:55:14.616Z,9.00
2023-05-19T04:58:15.573Z,9.00
2023-05-19T05:00:49.783Z,7.40
2023-05-19T05:03:34.606Z,8.50
2023-05-19T05:06:29.024Z,9.00
2023-05-19T05:09:05.311Z,7.90
2023-05-19T05:11:58.404Z,8.20
2023-05-19T05:14:42.760Z,7.60
2023-05-19T05:17:41.280Z,7.40
2023-05-19T05:20:31.634Z,9.10
2023-05-19T05:23:30.418Z,8.20
2023-05-19T05:26:23.531Z,8.10
2023-05-19T05:29:03.394Z,11.10
2023-05-19T05:31:55.677Z,6.00
2023-05-19T05:34:41.298Z,8.40
2023-05-19T05:37:16.042Z,7.90
2023-05-19T05:40:45.775Z,7.40
2023-05-19T05:43:20.272Z,6.80
2023-05-19T05:46:30.293Z,8.60
2023-05-19T05:49:10.445Z,6.70
2023-05-19T05:52:05.693Z,7.70
2023-05-19T05:55:06.411Z,6.80
2023-05-19T05:57:54.267Z,9.50
2023-05-19T06:00:45.682Z,8.20
2023-05-19T06:03:37.035Z,6.80
2023-05-19T06:06:38.602Z,6.40
2023-05-19T06:09:30.216Z,6.20
2023-05-19T06:12:19.093Z,8.00
2023-05-19T06:15:16.905Z,5.30
2023-05-19T06:18:11.848Z,7.00
2023-05-19T06:20:45.632Z,8.80
2023-05-19T06:23:29.355Z,5.90
2023-05-19T06:26:38.908Z,7.60
2023-05-19T06:29:40.092Z,6.70
2023-05-19T06:32:19.401Z,7.30
2023-05-19T06:34:59.558Z,5.40
2023-05-19T06:37:31.824Z,8.90
2023-05-19T06:40:10.556Z,5.00
2023-05-19T06:42:42.513Z,5.00
2023-05-19T06:45:55.207Z,6.30
2023-05-19T06:48:27.498Z,4.50
2023-05-19T06:51:04.867Z,5.70
2023-05-19T06:53:45.340Z,4.90
2023-05-19T06:56:52.421Z,7.50
2023-05-19T06:59:41.283Z,5.40
2023-05-19T07:02:26.189Z,6.20
2023-05-19T07:05:27.403Z,6.50
2023-05-19T07:08:07.036Z,6.70
2023-05-19T07:10:50.305Z,6.60
2023-05-19T07:13:44.551Z,5.50
2023-05-19T07:16:26.742Z,7.40
2023-05-19T07:19:15.686Z,6.10
2023-05-19T07:22:03.569Z,7.70
2023-05-19T07:24:48.416Z,7.70
2023-05-19T07:27:34.827Z,6.40
2023-05-19T07:30:11.959Z,7.20
2023-05-19T07:33:08.685Z,6.30
2023-05-19T07:35:46.236Z,7.20
2023-05-19T07:38:21.807Z,7.70
2023-05-19T07:40:56.308Z,6.70
2023-05-19T07:43:32.708Z,7.40
2023-05-19T07:46:22.773Z,8.50
2023-05-19T07:49:25.432Z,8.30
2023-05-19T07:52:08.127Z,7.50
2023-05-19T07:54:46.595Z,7.70
2023-05-19T07:57:35.629Z,7.60
2023-05-19T08:00:17.950Z,6.80
2023-05-19T08:02:55.002Z,6.70
2023-05-19T08:05:33.031Z,7.20
2023-05-19T08:08:02.982Z,7.50
2023-05-19T08:10:41.152Z,7.10
2023-05-19T08:13:49.831Z,7.80
2023-05-19T08:16:22.024Z,5.50
2023-05-19T08:19:11.125Z,7.40
2023-05-19T08:22:01.573Z,7.10
2023-05-19T08:24:58.055Z,6.00
2023-05-19T08:27:27.032Z,4.60
2023-05-19T08:30:01.986Z,5.20
2023-05-19T08:32:48.841Z,5.40
2023-05-19T08:35:32.832Z,5.00
2023-05-19T08:38:07.464Z,5.90
2023-05-19T08:40:42.650Z,4.70
2023-05-19T08:43:24.585Z,5.80
2023-05-19T08:46:02.910Z,5.10
2023-05-19T08:48:44.816Z,4.10
2023-05-19T08:51:39.602Z,4.80
2023-05-19T08:54:20.226Z,4.80
2023-05-19T08:56:58.977Z,6.70
2023-05-19T08:59:35.339Z,6.90
2023-05-19T09:02:14.243Z,5.50
2023-05-19T09:04:51.513Z,6.70
2023-05-19T09:07:25.959Z,5.80
2023-05-19T09:10:01.241Z,5.50
2023-05-19T09:12:51.440Z,5.00
2023-05-19T09:15:31.111Z,5.10
2023-05-19T09:18:21.236Z,5.50
2023-05-19T09:20:49.946Z,5.80
2023-05-19T09:23:28.899Z,6.40
2023-05-19T09:26:08.072Z,6.00
2023-05-19T09:29:04.122Z,6.70
2023-05-19T09:31:35.385Z,5.60
2023-05-19T09:34:22.608Z,9.90
2023-05-19T09:36:53.936Z,6.90
2023-05-19T09:39:26.351Z,5.70
2023-05-19T09:42:06.969Z,5.70
2023-05-19T09:44:45.696Z,5.00
2023-05-19T09:47:16.836Z,5.60
2023-05-19T09:49:54.129Z,6.20
2023-05-19T09:52:26.255Z,5.60
2023-05-19T09:55:05.113Z,5.70
2023-05-19T09:57:38.008Z,6.00
2023-05-19T10:00:18.463Z,6.10
2023-05-19T10:02:48.837Z,8.50
2023-05-19T10:05:23.899Z,6.60
2023-05-19T10:07:57.215Z,6.40
2023-05-19T10:10:28.031Z,6.60
2023-05-19T10:12:59.229Z,7.10
2023-05-19T10:15:28.394Z,5.90
2023-05-19T10:17:57.303Z,5.30
2023-05-19T10:20:27.837Z,5.90
2023-05-19T10:23:05.512Z,6.00
2023-05-19T10:25:44.081Z,8.30
2023-05-19T10:28:28.422Z,8.50
2023-05-19T10:31:04.761Z,5.20
2023-05-19T10:34:11.012Z,6.30
2023-05-19T10:36:49.118Z,5.30
2023-05-19T10:39:33.277Z,4.50
2023-05-19T10:42:15.905Z,5.30
2023-05-19T10:45:28.014Z,5.20
2023-05-19T10:47:59.886Z,6.40
2023-05-19T10:50:39.296Z,5.60
2023-05-19T10:53:22.733Z,5.60
2023-05-19T10:56:05.114Z,5.10
2023-05-19T10:58:46.008Z,7.50
2023-05-19T11:01:27.505Z,8.20
2023-05-19T11:04:12.414Z,6.70
2023-05-19T11:07:03.928Z,5.70
2023-05-19T11:09:41.472Z,6.90
2023-05-19T11:12:11.272Z,8.70
2023-05-19T11:14:41.554Z,6.40
2023-05-19T11:17:15.468Z,7.20
2023-05-19T11:19:55.497Z,7.00
2023-05-19T11:22:27.638Z,7.90
2023-05-19T11:24:57.156Z,6.30
2023-05-19T11:27:38.636Z,7.30
2023-05-19T11:30:15.013Z,8.80
2023-05-19T11:32:47.752Z,9.40
2023-05-19T11:35:19.640Z,7.90
2023-05-19T11:37:52.716Z,10.80
2023-05-19T11:40:22.854Z,9.50
2023-05-19T11:42:52.624Z,11.30
2023-05-19T11:45:28.925Z,11.20
2023-05-19T11:48:01.986Z,9.10
2023-05-19T11:50:33.082Z,9.20
2023-05-19T11:53:02.130Z,11.50
2023-05-19T11:55:34.846Z,9.90
2023-05-19T11:58:05.754Z,11.40
2023-05-19T12:00:41.143Z,8.60
2023-05-19T12:03:11.011Z,9.10
2023-05-19T12:05:48.782Z,10.70
2023-05-19T12:08:19.278Z,10.00
2023-05-19T12:10:52.484Z,10.10
2023-05-19T12:13:23.480Z,8.60
2023-05-19T12:15:53.640Z,8.10
2023-05-19T12:18:22.927Z,8.80
2023-05-19T12:20:55.433Z,7.20
2023-05-19T12:23:25.826Z,7.80
2023-05-19T12:25:56.021Z,6.60
2023-05-19T12:28:25.566Z,8.20
2023-05-19T12:30:59.013Z,8.00
2023-05-19T12:33:29.647Z,13.30
2023-05-19T12:35:58.451Z,10.10
2023-05-19T12:38:29.785Z,8.10
2023-05-19T12:41:01.757Z,9.10
2023-05-19T12:43:31.052Z,9.50
2023-05-19T12:46:12.752Z,9.40
2023-05-19T12:48:47.018Z,11.20
2023-05-19T12:51:26.721Z,10.20
2023-05-19T12:53:57.807Z,10.20
2023-05-19T12:56:28.718Z,10.90
2023-05-19T12:58:57.376Z,11.70
2023-05-19T13:01:30.994Z,12.80
2023-05-19T13:04:04.693Z,14.30
2023-05-19T13:06:50.063Z,15.00
2023-05-19T13:09:26.029Z,13.40
2023-05-19T13:11:59.110Z,12.60
2023-05-19T13:14:38.852Z,13.10
2023-05-19T13:17:14.075Z,10.20
2023-05-19T13:19:48.963Z,11.40
2023-05-19T13:22:26.509Z,13.00
2023-05-19T13:25:00.003Z,11.20
2023-05-19T13:27:41.082Z,8.70
2023-05-19T13:30:16.151Z,8.70
2023-05-19T13:32:48.832Z,8.60
2023-05-19T13:35:29.774Z,12.30
2023-05-19T13:38:04.424Z,13.20
2023-05-19T13:40:35.747Z,11.50
2023-05-19T13:43:06.229Z,12.00
2023-05-19T13:45:46.646Z,11.40
2023-05-19T13:48:16.201Z,13.60
2023-05-19T13:50:56.087Z,12.70
2023-05-19T13:53:26.821Z,10.20
2023-05-19T13:56:00.971Z,11.10
2023-05-19T13:58:37.184Z,11.50
2023-05-19T14:01:13.712Z,9.50
2023-05-19T14:03:49.131Z,11.30
2023-05-19T14:06:29.078Z,15.20
2023-05-19T14:09:09.734Z,15.80
2023-05-19T14:11:39.653Z,10.90
2023-05-19T14:14:09.420Z,13.00
2023-05-19T14:16:55.144Z,14.00
2023-05-19T14:19:30.586Z,12.40
2023-05-19T14:21:59.474Z,12.30
2023-05-19T14:24:33.507Z,14.30
2023-05-19T14:27:02.471Z,13.30
2023-05-19T14:29:37.629Z,13.60
2023-05-19T14:32:18.306Z,13.20
2023-05-19T14:34:55.056Z,14.30
2023-05-19T14:37:35.446Z,14.00
2023-05-19T14:40:08.527Z,13.70
2023-05-19T14:42:43.275Z,15.10
2023-05-19T14:45:15.546Z,13.30
2023-05-19T14:47:51.945Z,14.30
2023-05-19T14:50:31.655Z,12.50
2023-05-19T14:53:02.945Z,15.00
2023-05-19T14:55:32.475Z,12.50
2023-05-19T14:58:01.374Z,14.20
2023-05-19T15:00:30.714Z,15.20
2023-05-19T15:03:01.725Z,13.80
2023-05-19T15:05:34.090Z,9.80
2023-05-19T15:08:06.096Z,12.40
2023-05-19T15:10:35.016Z,13.20
2023-05-19T15:13:04.962Z,13.70
2023-05-19T15:15:33.760Z,14.60
2023-05-19T15:18:03.300Z,12.60
2023-05-19T15:20:33.188Z,14.90
2023-05-19T15:23:06.361Z,12.30
2023-05-19T15:25:36.450Z,13.30
2023-05-19T15:28:08.870Z,11.40
2023-05-19T15:30:38.658Z,11.70
2023-05-19T15:33:08.553Z,11.40
2023-05-19T15:35:38.470Z,13.80
2023-05-19T15:38:08.096Z,13.40
2023-05-19T15:40:38.174Z,12.40
2023-05-19T15:43:07.323Z,15.40
2023-05-19T15:45:36.097Z,15.80
2023-05-19T15:48:06.655Z,17.70
2023-05-19T15:50:36.937Z,16.50
2023-05-19T15:53:08.103Z,18.50
2023-05-19T15:55:37.909Z,16.30
2023-05-19T15:58:09.155Z,17.40
2023-05-19T16:00:38.051Z,18.20
2023-05-19T16:03:09.870Z,17.70
2023-05-19T16:05:47.541Z,17.60
2023-05-19T16:08:21.745Z,20.70
2023-05-19T16:10:52.150Z,21.00
2023-05-19T16:13:21.771Z,23.40
2023-05-19T16:15:53.211Z,18.20
2023-05-19T16:18:25.495Z,20.10
2023-05-19T16:20:57.798Z,19.80
2023-05-19T16:23:31.170Z,17.00
2023-05-19T16:26:02.448Z,23.00
2023-05-19T16:28:33.333Z,18.50
2023-05-19T16:31:03.260Z,18.40
2023-05-19T16:33:36.407Z,21.00
2023-05-19T16:36:08.866Z,18.80
2023-05-19T16:38:43.146Z,21.60
2023-05-19T16:41:22.878Z,21.00
2023-05-19T16:43:57.103Z,18.80
2023-05-19T16:46:31.977Z,19.20
2023-05-19T16:49:05.641Z,19.50
2023-05-19T16:51:39.053Z,19.30
2023-05-19T16:54:10.578Z,19.00
2023-05-19T16:56:41.682Z,19.80
2023-05-19T16:59:11.632Z,19.00
2023-05-19T17:01:41.822Z,20.10
2023-05-19T17:04:11.158Z,19.80
2023-05-19T17:06:44.049Z,21.30
2023-05-19T17:09:17.037Z,20.70
2023-05-19T17:11:48.901Z,22.40
2023-05-19T17:14:22.756Z,21.50
2023-05-19T17:16:55.935Z,19.90
2023-05-19T17:19:28.408Z,24.00
2023-05-19T17:22:00.335Z,20.00
2023-05-19T17:24:34.333Z,20.30
2023-05-19T17:27:08.478Z,23.60
2023-05-19T17:29:44.653Z,24.50
2023-05-19T17:32:17.911Z,21.80
2023-05-19T17:34:52.773Z,21.40
2023-05-19T17:37:29.599Z,23.60
2023-05-19T17:40:02.166Z,19.60
2023-05-19T17:42:32.836Z,19.30
2023-05-19T17:45:07.846Z,24.00
2023-05-19T17:47:40.350Z,23.50
2023-05-19T17:50:11.096Z,22.70
2023-05-19T17:52:42.162Z,30.00
2023-05-19T17:55:14.325Z,29.20
2023-05-19T17:57:46.701Z,22.00
2023-05-19T18:00:20.033Z,22.00
2023-05-19T18:02:51.061Z,20.60
2023-05-19T18:05:28.037Z,21.40
2023-05-19T18:08:02.424Z,22.50
2023-05-19T18:10:37.508Z,22.10
2023-05-19T18:13:10.847Z,21.60
2023-05-19T18:15:41.660Z,17.40
2023-05-19T18:18:19.455Z,18.70
2023-05-19T18:20:53.138Z,16.40
2023-05-19T18:23:27.443Z,18.40
2023-05-19T18:25:58.330Z,17.50
2023-05-19T18:28:30.185Z,17.50
2023-05-19T18:31:05.931Z,18.40
2023-05-19T18:33:39.961Z,18.40
2023-05-19T18:36:12.902Z,17.60
2023-05-19T18:38:42.419Z,16.80
2023-05-19T18:41:12.161Z,15.30
2023-05-19T18:43:41.771Z,16.20
2023-05-19T18:46:14.069Z,14.30
2023-05-19T18:48:44.383Z,16.80
2023-05-19T18:51:19.027Z,19.30
2023-05-19T19:20:53.892Z,28.60
2023-05-19T19:23:31.663Z,26.80
2023-05-19T19:26:09.476Z,24.90
2023-05-19T19:28:49.101Z,27.60
2023-05-19T19:31:20.369Z,26.60
2023-05-19T19:34:05.010Z,27.20
2023-05-19T19:36:42.627Z,22.70
2023-05-19T19:39:17.213Z,22.90
2023-05-19T19:41:46.527Z,21.50
2023-05-19T19:44:15.671Z,22.10
2023-05-19T19:47:00.613Z,20.20
2023-05-19T19:49:33.064Z,20.60
2023-05-19T19:52:07.049Z,21.60
2023-05-19T19:54:39.666Z,21.50
2023-05-19T19:57:11.201Z,20.00
2023-05-19T19:59:44.837Z,18.20
2023-05-19T20:02:18.292Z,18.20
2023-05-19T20:04:48.465Z,18.60
2023-05-19T20:07:29.875Z,19.00
2023-05-19T20:10:02.413Z,20.60
2023-05-19T20:12:31.911Z,18.70
2023-05-19T20:15:05.601Z,20.80
2023-05-19T20:17:35.281Z,22.30
2023-05-19T20:20:10.774Z,21.80
2023-05-19T20:22:47.005Z,21.50
2023-05-19T20:25:30.873Z,20.60
2023-05-19T20:28:03.484Z,22.90
2023-05-19T20:30:37.391Z,23.90
2023-05-19T20:33:08.655Z,21.50
2023-05-19T20:35:41.959Z,20.20
2023-05-19T20:38:21.154Z,17.50
2023-05-19T20:40:55.927Z,19.40
2023-05-19T20:43:33.278Z,19.10
2023-05-19T20:46:15.538Z,20.20
2023-05-19T20:48:51.572Z,19.10
2023-05-19T20:51:24.264Z,20.80
2023-05-19T20:54:01.768Z,22.00
2023-05-19T20:56:32.850Z,22.50
2023-05-19T20:59:04.974Z,21.20
2023-05-19T21:01:34.619Z,19.30
2023-05-19T21:04:12.424Z,16.20
2023-05-19T21:06:47.209Z,15.60
2023-05-19T21:09:20.687Z,18.00
2023-05-19T21:11:55.436Z,14.10
2023-05-19T21:14:28.627Z,16.90
2023-05-19T21:16:58.290Z,16.40
2023-05-19T21:19:31.531Z,14.90
2023-05-19T21:22:01.111Z,16.60
2023-05-19T21:24:31.362Z,21.00
2023-05-19T21:27:03.460Z,15.40
2023-05-19T21:29:34.211Z,16.80
2023-05-19T21:32:06.735Z,15.70
2023-05-19T21:34:36.649Z,19.30
2023-05-19T21:37:23.124Z,16.80
2023-05-19T21:39:55.723Z,16.30
2023-05-19T21:42:30.757Z,16.50
2023-05-19T21:45:00.241Z,18.30
2023-05-19T21:47:32.649Z,16.20
2023-05-19T21:50:05.427Z,17.50
2023-05-19T21:52:37.447Z,17.40
2023-05-19T21:55:11.188Z,17.10
2023-05-19T21:58:03.432Z,16.00
2023-05-19T22:00:36.954Z,16.40
2023-05-19T22:03:05.805Z,14.50
2023-05-19T22:05:38.503Z,16.30
2023-05-19T22:08:09.538Z,17.80
2023-05-19T22:10:58.713Z,18.60
2023-05-19T22:13:41.303Z,16.80
2023-05-19T22:16:10.368Z,18.10
2023-05-19T22:18:49.576Z,19.40
2023-05-19T22:21:21.916Z,20.60
2023-05-19T22:24:10.497Z,19.40
2023-05-19T22:26:55.260Z,18.70
2023-05-19T22:29:30.372Z,18.70
2023-05-19T22:32:18.765Z,21.40
2023-05-19T22:35:10.433Z,21.30
2023-05-19T22:37:48.945Z,19.00
2023-05-19T22:40:41.197Z,20.70
2023-05-19T22:43:34.665Z,19.70
2023-05-19T22:46:09.616Z,20.70
2023-05-19T22:48:57.206Z,22.10
2023-05-19T22:51:32.363Z,22.20
2023-05-19T22:54:29.404Z,22.10
2023-05-19T22:57:32.185Z,21.90
2023-05-19T23:00:22.384Z,24.50
2023-05-19T23:02:54.672Z,24.20
2023-05-19T23:05:35.307Z,23.20
2023-05-19T23:08:23.479Z,25.10
2023-05-19T23:11:23.038Z,26.30
2023-05-19T23:13:57.319Z,23.80
2023-05-19T23:16:34.608Z,27.60
2023-05-19T23:19:48.691Z,24.10
2023-05-19T23:23:00.748Z,25.20
2023-05-19T23:25:33.405Z,23.00
2023-05-19T23:28:11.281Z,24.00
2023-05-19T23:31:09.192Z,22.20
2023-05-19T23:33:51.485Z,23.80
2023-05-19T23:36:23.261Z,24.40
2023-05-19T23:38:54.817Z,27.90
2023-05-19T23:41:35.065Z,23.80
2023-05-19T23:44:21.773Z,26.90
2023-05-19T23:47:02.920Z,25.90
2023-05-19T23:49:59.813Z,28.80
2023-05-19T23:52:33.814Z,31.80
2023-05-19T23:55:17.487Z,32.40
2023-05-19T23:58:02.210Z,33.40
